createdAt,value
2019-04-29T00:03:00.494Z,4.95
2019-04-29T00:08:11.188Z,4.33
2019-04-29T00:13:17.216Z,4.87
2019-04-29T00:18:28.648Z,4.87
2019-04-29T00:23:33.900Z,3.70
2019-04-29T00:28:38.698Z,4.45
2019-04-29T00:33:43.838Z,5.00
2019-04-29T00:39:02.570Z,5.83
2019-04-29T00:44:11.739Z,5.62
2019-04-29T00:49:16.755Z,6.33
2019-04-29T00:54:30.702Z,6.42
2019-04-29T00:59:35.474Z,4.33
2019-04-29T01:04:40.565Z,6.15
2019-04-29T01:09:45.435Z,5.85
2019-04-29T01:14:50.215Z,7.53
2019-04-29T01:19:54.993Z,8.28
2019-04-29T01:24:59.726Z,7.37
2019-04-29T01:30:06.792Z,7.48
2019-04-29T01:35:11.895Z,7.13
2019-04-29T01:40:34.585Z,8.00
2019-04-29T01:45:39.311Z,8.35
2019-04-29T01:50:44.202Z,8.65
2019-04-29T01:55:49.057Z,10.15
2019-04-29T02:00:53.765Z,6.80
2019-04-29T02:05:58.638Z,7.72
2019-04-29T02:11:03.507Z,9.95
2019-04-29T02:16:08.267Z,9.73
2019-04-29T02:21:13.079Z,9.73
2019-04-29T02:26:18.537Z,10.67
2019-04-29T02:31:38.260Z,10.08
2019-04-29T02:36:43.147Z,9.30
2019-04-29T02:41:56.006Z,10.77
2019-04-29T02:47:00.753Z,10.23
2019-04-29T02:52:05.885Z,10.83
2019-04-29T02:57:31.570Z,9.35
2019-04-29T03:02:45.211Z,11.08
2019-04-29T03:07:50.197Z,10.58
2019-04-29T03:12:54.971Z,10.90
2019-04-29T03:18:00.115Z,12.13
2019-04-29T03:23:16.564Z,13.15
2019-04-29T03:28:27.238Z,10.63
2019-04-29T03:33:31.929Z,13.60
2019-04-29T03:38:42.389Z,11.07
2019-04-29T03:43:49.565Z,12.87
2019-04-29T03:49:01.482Z,11.78
2019-04-29T03:54:09.299Z,14.50
2019-04-29T03:59:14.175Z,14.05
2019-04-29T04:04:36.697Z,15.72
2019-04-29T04:09:42.141Z,16.35
2019-04-29T04:14:46.845Z,14.33
2019-04-29T04:19:51.722Z,15.45
2019-04-29T04:24:56.466Z,20.32
2019-04-29T04:30:01.196Z,15.90
2019-04-29T04:35:08.640Z,18.23
2019-04-29T04:40:17.194Z,17.67
2019-04-29T04:45:22.300Z,17.07
2019-04-29T04:50:27.134Z,16.97
2019-04-29T04:55:33.828Z,16.97
2019-04-29T05:00:38.529Z,20.45
2019-04-29T05:05:43.250Z,19.17
2019-04-29T05:10:48.913Z,17.90
2019-04-29T05:15:53.599Z,16.80
2019-04-29T05:20:58.358Z,16.75
2019-04-29T05:26:04.969Z,17.80
2019-04-29T05:31:09.677Z,21.00
2019-04-29T05:36:38.140Z,18.80
2019-04-29T05:41:44.008Z,19.40
2019-04-29T05:46:53.846Z,19.10
2019-04-29T05:52:23.837Z,16.17
2019-04-29T05:57:28.643Z,16.48
2019-04-29T06:02:38.271Z,13.45
2019-04-29T06:07:39.809Z,12.55
2019-04-29T06:12:44.758Z,16.80
2019-04-29T06:17:49.658Z,15.23
2019-04-29T06:22:54.396Z,15.40
2019-04-29T06:27:59.152Z,14.58
2019-04-29T06:33:04.591Z,13.95
2019-04-29T06:38:15.334Z,12.85
2019-04-29T06:43:20.033Z,15.63
2019-04-29T06:48:24.851Z,16.85
2019-04-29T06:53:29.638Z,13.53
2019-04-29T06:58:36.685Z,14.07
2019-04-29T07:03:40.894Z,12.40
2019-04-29T07:08:45.590Z,14.30
2019-04-29T07:13:53.439Z,11.55
2019-04-29T07:18:58.958Z,12.20
2019-04-29T07:24:04.764Z,12.87
2019-04-29T07:29:09.890Z,12.13
2019-04-29T07:34:14.657Z,11.65
2019-04-29T07:39:19.574Z,13.93
2019-04-29T07:44:32.850Z,13.00
2019-04-29T07:49:33.868Z,12.10
2019-04-29T07:54:38.808Z,12.33
2019-04-29T07:59:43.532Z,10.23
2019-04-29T08:04:48.485Z,10.05
2019-04-29T08:09:53.332Z,12.88
2019-04-29T08:15:07.490Z,14.20
2019-04-29T08:20:06.780Z,15.53
2019-04-29T08:25:13.308Z,15.77
2019-04-29T08:30:18.403Z,20.20
2019-04-29T08:35:23.526Z,17.63
2019-04-29T08:40:28.315Z,19.10
2019-04-29T08:45:40.599Z,21.00
2019-04-29T08:50:45.660Z,20.77
2019-04-29T08:55:51.999Z,18.95
2019-04-29T09:00:57.634Z,18.83
2019-04-29T09:06:05.615Z,22.37
2019-04-29T09:11:12.938Z,21.18
2019-04-29T09:16:15.727Z,21.70
2019-04-29T09:21:21.396Z,19.60
2019-04-29T09:26:38.977Z,23.67
2019-04-29T09:31:46.664Z,21.85
2019-04-29T09:36:50.331Z,21.23
2019-04-29T09:42:13.037Z,21.17
2019-04-29T09:47:15.108Z,22.62
2019-04-29T09:52:19.949Z,18.95
2019-04-29T09:57:24.647Z,19.87
2019-04-29T10:02:38.456Z,20.12
2019-04-29T10:07:49.041Z,23.12
2019-04-29T10:12:54.200Z,22.47
2019-04-29T10:18:06.452Z,20.77
2019-04-29T10:23:11.341Z,20.57
2019-04-29T10:28:16.109Z,21.20
2019-04-29T10:33:23.128Z,23.85
2019-04-29T10:38:28.072Z,21.93
2019-04-29T10:43:53.770Z,21.17
2019-04-29T10:49:03.589Z,22.20
2019-04-29T10:54:14.110Z,25.58
2019-04-29T10:59:17.414Z,26.97
2019-04-29T11:04:24.103Z,24.32
2019-04-29T11:09:41.991Z,24.05
2019-04-29T11:14:48.356Z,28.52
2019-04-29T11:19:53.483Z,23.77
2019-04-29T11:25:20.280Z,24.05
2019-04-29T11:30:26.777Z,29.32
2019-04-29T11:35:37.489Z,26.82
2019-04-29T11:40:44.209Z,23.35
2019-04-29T11:45:49.298Z,24.27
2019-04-29T11:51:20.054Z,25.37
2019-04-29T11:56:25.124Z,21.07
2019-04-29T12:01:53.262Z,24.00
2019-04-29T12:06:58.227Z,19.20
2019-04-29T12:12:03.430Z,24.87
2019-04-29T12:17:20.119Z,23.62
2019-04-29T12:22:30.276Z,24.90
2019-04-29T12:27:31.437Z,23.05
2019-04-29T12:32:52.132Z,19.20
2019-04-29T12:38:19.229Z,18.12
2019-04-29T12:43:43.217Z,19.50
2019-04-29T12:48:48.124Z,21.68
2019-04-29T12:53:58.003Z,20.92
2019-04-29T12:59:03.566Z,19.62
2019-04-29T13:04:22.934Z,24.60
2019-04-29T13:09:37.516Z,18.43
2019-04-29T13:15:02.588Z,23.25
2019-04-29T13:20:07.206Z,26.65
2019-04-29T13:25:19.743Z,21.68
2019-04-29T13:30:23.901Z,18.63
2019-04-29T13:35:29.678Z,19.77
2019-04-29T13:40:37.825Z,18.95
2019-04-29T13:45:47.050Z,20.15
2019-04-29T13:51:02.609Z,19.27
2019-04-29T13:56:11.847Z,18.60
2019-04-29T14:01:39.700Z,29.63
2019-04-29T14:06:56.194Z,17.55
2019-04-29T14:12:01.412Z,18.73
2019-04-29T14:17:17.243Z,19.30
2019-04-29T14:22:04.833Z,19.23
2019-04-29T14:27:24.086Z,19.43
2019-04-29T14:32:18.612Z,22.93
2019-04-29T14:37:25.243Z,16.52
2019-04-29T14:42:36.897Z,17.87
2019-04-29T14:47:50.456Z,16.10
2019-04-29T14:52:56.910Z,15.15
2019-04-29T14:58:01.684Z,15.18
2019-04-29T15:03:06.518Z,11.73
2019-04-29T15:08:12.282Z,17.87
2019-04-29T15:13:21.207Z,10.13
2019-04-29T15:18:47.143Z,11.53
2019-04-29T15:23:45.551Z,9.78
2019-04-29T15:28:53.706Z,10.72
2019-04-29T15:33:58.452Z,11.05
2019-04-29T15:39:11.895Z,9.10
2019-04-29T15:44:20.315Z,7.93
2019-04-29T15:49:24.582Z,5.80
2019-04-29T15:54:30.373Z,8.58
2019-04-29T15:59:48.620Z,9.05
2019-04-29T16:04:49.331Z,8.43
2019-04-29T16:10:14.492Z,7.25
2019-04-29T16:15:20.452Z,11.63
2019-04-29T16:20:25.268Z,6.10
2019-04-29T16:25:30.343Z,6.47
2019-04-29T16:30:35.187Z,7.70
2019-04-29T16:35:40.038Z,10.60
2019-04-29T16:40:48.850Z,7.70
2019-04-29T16:46:01.006Z,8.50
2019-04-29T16:51:14.468Z,7.20
2019-04-29T16:56:16.347Z,8.83
2019-04-29T17:01:21.156Z,7.03
2019-04-29T17:06:26.146Z,5.05
2019-04-29T17:11:32.591Z,8.70
2019-04-29T17:16:37.463Z,7.15
2019-04-29T17:21:42.384Z,5.17
2019-04-29T17:27:05.199Z,5.70
2019-04-29T17:32:43.827Z,6.10
2019-04-29T17:37:42.523Z,5.37
2019-04-29T17:42:51.094Z,5.05
2019-04-29T17:48:12.959Z,5.65
2019-04-29T17:53:37.853Z,5.80
2019-04-29T17:58:51.328Z,11.15
2019-04-29T18:04:11.802Z,7.35
2019-04-29T18:09:37.348Z,5.00
2019-04-29T18:14:44.667Z,5.70
2019-04-29T18:20:24.903Z,5.95
2019-04-29T18:25:31.421Z,4.95
2019-04-29T18:30:38.475Z,7.33
2019-04-29T18:35:42.842Z,3.15
2019-04-29T18:40:49.434Z,6.03
2019-04-29T18:45:58.336Z,5.90
2019-04-29T18:51:00.715Z,3.65
2019-04-29T18:56:05.652Z,3.77
2019-04-29T19:01:10.357Z,4.03
2019-04-29T19:06:15.679Z,4.60
2019-04-29T19:11:29.926Z,7.37
2019-04-29T19:16:27.685Z,3.62
2019-04-29T19:21:32.487Z,5.58
2019-04-29T19:26:37.670Z,4.28
2019-04-29T19:31:46.590Z,7.17
2019-04-29T19:36:50.659Z,3.67
2019-04-29T19:41:55.895Z,5.20
2019-04-29T19:47:00.629Z,4.85
2019-04-29T19:52:05.875Z,4.15
2019-04-29T19:57:10.685Z,6.20
2019-04-29T20:02:17.011Z,11.48
2019-04-29T20:07:23.788Z,7.42
2019-04-29T20:12:29.481Z,5.20
2019-04-29T20:18:05.757Z,5.22
2019-04-29T20:23:11.349Z,6.10
2019-04-29T20:28:18.517Z,4.60
2019-04-29T20:33:22.735Z,5.42
2019-04-29T20:38:29.956Z,6.30
2019-04-29T20:43:35.877Z,6.37
2019-04-29T20:48:41.374Z,5.33
2019-04-29T20:53:56.086Z,7.75
2019-04-29T20:59:01.924Z,4.92
2019-04-29T21:04:07.952Z,4.00
2019-04-29T21:09:16.737Z,5.20
2019-04-29T21:14:27.206Z,6.42
2019-04-29T21:19:32.257Z,4.97
2019-04-29T21:24:37.042Z,4.35
2019-04-29T21:29:41.795Z,5.10
2019-04-29T21:34:55.721Z,6.37
2019-04-29T21:40:07.058Z,4.47
2019-04-29T21:45:15.803Z,5.60
2019-04-29T21:50:37.920Z,5.67
2019-04-29T21:55:40.298Z,8.73
2019-04-29T22:00:45.597Z,4.30
2019-04-29T22:05:53.605Z,5.65
2019-04-29T22:11:05.083Z,4.22
2019-04-29T22:16:05.208Z,10.30
2019-04-29T22:21:14.307Z,6.10
2019-04-29T22:26:23.085Z,6.80
2019-04-29T22:31:28.362Z,7.65
2019-04-29T22:36:29.873Z,4.85
2019-04-29T22:41:56.816Z,9.33
2019-04-29T22:47:01.611Z,5.17
2019-04-29T22:52:08.990Z,9.73
2019-04-29T22:57:15.525Z,5.35
2019-04-29T23:02:25.094Z,6.97
2019-04-29T23:07:26.847Z,6.90
2019-04-29T23:12:31.599Z,7.30
2019-04-29T23:17:36.329Z,5.30
2019-04-29T23:22:47.229Z,4.92
2019-04-29T23:27:52.710Z,7.83
2019-04-29T23:32:58.651Z,7.47
2019-04-29T23:38:09.497Z,6.47
2019-04-29T23:43:15.783Z,5.87
2019-04-29T23:48:23.757Z,6.57
2019-04-29T23:53:27.017Z,5.90
2019-04-29T23:58:39.170Z,4.17
